sensor_id;sensor_type;location;lat;lon;timestamp;temperature;humidity
1123;DHT22;548;48.778;9.252;2023-04-08T00:01:39;10.00;99.90
1123;DHT22;548;48.778;9.252;2023-04-08T00:04:05;10.10;99.90
1123;DHT22;548;48.778;9.252;2023-04-08T00:06:33;10.10;99.90
1123;DHT22;548;48.778;9.252;2023-04-08T00:09:01;10.00;99.90
1123;DHT22;548;48.778;9.252;2023-04-08T00:11:28;10.00;99.90
1123;DHT22;548;48.778;9.252;2023-04-08T00:13:55;10.00;99.90
1123;DHT22;548;48.778;9.252;2023-04-08T00:16:23;10.00;99.90
1123;DHT22;548;48.778;9.252;2023-04-08T00:18:50;10.00;99.90
1123;DHT22;548;48.778;9.252;2023-04-08T00:21:17;10.00;99.90
1123;DHT22;548;48.778;9.252;2023-04-08T00:23:45;10.00;99.90
1123;DHT22;548;48.778;9.252;2023-04-08T00:26:11;10.00;99.90
1123;DHT22;548;48.778;9.252;2023-04-08T00:28:38;9.90;99.90
1123;DHT22;548;48.778;9.252;2023-04-08T00:31:05;9.90;99.90
1123;DHT22;548;48.778;9.252;2023-04-08T00:33:33;9.90;99.90
1123;DHT22;548;48.778;9.252;2023-04-08T00:36:00;9.80;99.90
1123;DHT22;548;48.778;9.252;2023-04-08T00:38:27;9.60;99.90
1123;DHT22;548;48.778;9.252;2023-04-08T00:40:54;9.70;99.90
1123;DHT22;548;48.778;9.252;2023-04-08T00:43:22;9.70;99.90
1123;DHT22;548;48.778;9.252;2023-04-08T00:45:49;9.70;99.90
1123;DHT22;548;48.778;9.252;2023-04-08T00:48:15;9.70;99.90
1123;DHT22;548;48.778;9.252;2023-04-08T00:50:44;9.70;99.90
1123;DHT22;548;48.778;9.252;2023-04-08T00:53:12;9.70;99.90
1123;DHT22;548;48.778;9.252;2023-04-08T00:55:40;9.80;99.90
1123;DHT22;548;48.778;9.252;2023-04-08T00:58:07;9.80;99.90
1123;DHT22;548;48.778;9.252;2023-04-08T01:00:35;9.80;99.90
1123;DHT22;548;48.778;9.252;2023-04-08T01:03:07;9.80;99.90
1123;DHT22;548;48.778;9.252;2023-04-08T01:05:44;9.80;99.90
1123;DHT22;548;48.778;9.252;2023-04-08T01:08:16;9.80;99.90
1123;DHT22;548;48.778;9.252;2023-04-08T01:10:44;9.70;99.90
1123;DHT22;548;48.778;9.252;2023-04-08T01:13:16;9.80;99.90
1123;DHT22;548;48.778;9.252;2023-04-08T01:15:44;9.70;99.90
1123;DHT22;548;48.778;9.252;2023-04-08T01:18:12;9.70;99.90
1123;DHT22;548;48.778;9.252;2023-04-08T01:20:40;9.70;99.90
1123;DHT22;548;48.778;9.252;2023-04-08T01:23:14;9.70;99.90
1123;DHT22;548;48.778;9.252;2023-04-08T01:25:46;9.70;99.90
1123;DHT22;548;48.778;9.252;2023-04-08T01:28:15;9.70;99.90
1123;DHT22;548;48.778;9.252;2023-04-08T01:30:44;9.70;99.90
1123;DHT22;548;48.778;9.252;2023-04-08T01:33:14;9.70;99.90
1123;DHT22;548;48.778;9.252;2023-04-08T01:35:42;9.70;99.90
1123;DHT22;548;48.778;9.252;2023-04-08T01:38:13;9.70;99.90
1123;DHT22;548;48.778;9.252;2023-04-08T01:40:41;9.80;99.90
1123;DHT22;548;48.778;9.252;2023-04-08T01:43:10;9.70;99.90
1123;DHT22;548;48.778;9.252;2023-04-08T01:45:38;9.80;99.90
1123;DHT22;548;48.778;9.252;2023-04-08T01:48:06;9.80;99.90
1123;DHT22;548;48.778;9.252;2023-04-08T01:50:33;9.90;99.90
1123;DHT22;548;48.778;9.252;2023-04-08T01:53:01;9.90;99.90
1123;DHT22;548;48.778;9.252;2023-04-08T01:55:31;10.00;99.90
1123;DHT22;548;48.778;9.252;2023-04-08T01:57:59;9.90;99.90
1123;DHT22;548;48.778;9.252;2023-04-08T02:00:29;10.00;99.90
1123;DHT22;548;48.778;9.252;2023-04-08T02:02:57;9.90;99.90
1123;DHT22;548;48.778;9.252;2023-04-08T02:05:24;9.90;99.90
1123;DHT22;548;48.778;9.252;2023-04-08T02:07:51;9.90;99.90
1123;DHT22;548;48.778;9.252;2023-04-08T02:10:18;9.80;99.90
1123;DHT22;548;48.778;9.252;2023-04-08T02:12:45;9.80;99.90
1123;DHT22;548;48.778;9.252;2023-04-08T02:15:13;9.80;99.90
1123;DHT22;548;48.778;9.252;2023-04-08T02:17:44;9.70;99.90
1123;DHT22;548;48.778;9.252;2023-04-08T02:20:15;9.70;99.90
1123;DHT22;548;48.778;9.252;2023-04-08T02:22:47;9.70;99.90
1123;DHT22;548;48.778;9.252;2023-04-08T02:25:16;9.70;99.90
1123;DHT22;548;48.778;9.252;2023-04-08T02:27:44;9.70;99.90
1123;DHT22;548;48.778;9.252;2023-04-08T02:30:13;9.70;99.90
1123;DHT22;548;48.778;9.252;2023-04-08T02:32:43;9.70;99.90
1123;DHT22;548;48.778;9.252;2023-04-08T02:35:10;9.70;99.90
1123;DHT22;548;48.778;9.252;2023-04-08T02:37:37;9.70;99.90
1123;DHT22;548;48.778;9.252;2023-04-08T02:40:21;9.50;99.90
1123;DHT22;548;48.778;9.252;2023-04-08T02:42:48;9.60;99.90
1123;DHT22;548;48.778;9.252;2023-04-08T02:45:15;9.60;99.90
1123;DHT22;548;48.778;9.252;2023-04-08T02:47:43;9.60;99.90
1123;DHT22;548;48.778;9.252;2023-04-08T02:50:10;9.60;99.90
1123;DHT22;548;48.778;9.252;2023-04-08T02:52:37;9.60;99.90
1123;DHT22;548;48.778;9.252;2023-04-08T02:55:04;9.50;99.90
1123;DHT22;548;48.778;9.252;2023-04-08T02:57:34;9.60;99.90
1123;DHT22;548;48.778;9.252;2023-04-08T03:00:01;9.50;99.90
1123;DHT22;548;48.778;9.252;2023-04-08T03:02:28;9.50;99.90
1123;DHT22;548;48.778;9.252;2023-04-08T03:04:56;9.50;99.90
1123;DHT22;548;48.778;9.252;2023-04-08T03:07:23;9.40;99.90
1123;DHT22;548;48.778;9.252;2023-04-08T03:09:50;9.50;99.90
1123;DHT22;548;48.778;9.252;2023-04-08T03:12:17;9.50;99.90
1123;DHT22;548;48.778;9.252;2023-04-08T03:14:43;9.50;99.90
1123;DHT22;548;48.778;9.252;2023-04-08T03:17:10;9.50;99.90
1123;DHT22;548;48.778;9.252;2023-04-08T03:19:37;9.40;99.90
1123;DHT22;548;48.778;9.252;2023-04-08T03:22:05;9.40;99.90
1123;DHT22;548;48.778;9.252;2023-04-08T03:24:31;9.30;99.90
1123;DHT22;548;48.778;9.252;2023-04-08T03:26:58;9.30;99.90
1123;DHT22;548;48.778;9.252;2023-04-08T03:29:25;9.20;99.90
1123;DHT22;548;48.778;9.252;2023-04-08T03:31:51;9.20;99.90
1123;DHT22;548;48.778;9.252;2023-04-08T03:34:18;9.20;99.90
1123;DHT22;548;48.778;9.252;2023-04-08T03:36:45;9.30;99.90
1123;DHT22;548;48.778;9.252;2023-04-08T03:39:13;9.20;99.90
1123;DHT22;548;48.778;9.252;2023-04-08T03:41:40;9.20;99.90
1123;DHT22;548;48.778;9.252;2023-04-08T03:44:07;9.20;99.90
1123;DHT22;548;48.778;9.252;2023-04-08T03:46:34;9.30;99.90
1123;DHT22;548;48.778;9.252;2023-04-08T03:49:00;9.30;99.90
1123;DHT22;548;48.778;9.252;2023-04-08T03:51:27;9.30;99.90
1123;DHT22;548;48.778;9.252;2023-04-08T03:53:54;9.30;99.90
1123;DHT22;548;48.778;9.252;2023-04-08T03:56:22;9.20;99.90
1123;DHT22;548;48.778;9.252;2023-04-08T03:58:49;9.20;99.90
1123;DHT22;548;48.778;9.252;2023-04-08T04:01:16;9.20;99.90
1123;DHT22;548;48.778;9.252;2023-04-08T04:03:43;9.20;99.90
1123;DHT22;548;48.778;9.252;2023-04-08T04:06:10;9.20;99.90
1123;DHT22;548;48.778;9.252;2023-04-08T04:08:36;9.20;99.90
1123;DHT22;548;48.778;9.252;2023-04-08T04:11:03;9.20;99.90
1123;DHT22;548;48.778;9.252;2023-04-08T04:13:31;9.20;99.90
1123;DHT22;548;48.778;9.252;2023-04-08T04:15:58;9.20;99.90
1123;DHT22;548;48.778;9.252;2023-04-08T04:18:24;9.10;99.90
1123;DHT22;548;48.778;9.252;2023-04-08T04:20:51;9.10;99.90
1123;DHT22;548;48.778;9.252;2023-04-08T04:23:18;9.20;99.90
1123;DHT22;548;48.778;9.252;2023-04-08T04:25:44;9.20;99.90
1123;DHT22;548;48.778;9.252;2023-04-08T04:28:11;9.20;99.90
1123;DHT22;548;48.778;9.252;2023-04-08T04:30:39;9.20;99.90
1123;DHT22;548;48.778;9.252;2023-04-08T04:33:06;9.20;99.90
1123;DHT22;548;48.778;9.252;2023-04-08T04:35:33;9.20;99.90
1123;DHT22;548;48.778;9.252;2023-04-08T04:38:00;9.20;99.90
1123;DHT22;548;48.778;9.252;2023-04-08T04:40:27;9.20;99.90
1123;DHT22;548;48.778;9.252;2023-04-08T04:42:54;9.10;99.90
1123;DHT22;548;48.778;9.252;2023-04-08T04:45:20;9.10;99.90
1123;DHT22;548;48.778;9.252;2023-04-08T04:47:48;8.90;99.90
1123;DHT22;548;48.778;9.252;2023-04-08T04:50:15;9.00;99.90
1123;DHT22;548;48.778;9.252;2023-04-08T04:52:42;8.90;99.90
1123;DHT22;548;48.778;9.252;2023-04-08T04:55:09;8.80;99.90
1123;DHT22;548;48.778;9.252;2023-04-08T04:57:36;8.70;99.90
1123;DHT22;548;48.778;9.252;2023-04-08T05:00:03;8.70;99.90
1123;DHT22;548;48.778;9.252;2023-04-08T05:02:30;8.70;99.90
1123;DHT22;548;48.778;9.252;2023-04-08T05:04:58;8.60;99.90
1123;DHT22;548;48.778;9.252;2023-04-08T05:07:24;8.70;99.90
1123;DHT22;548;48.778;9.252;2023-04-08T05:09:51;8.70;99.90
1123;DHT22;548;48.778;9.252;2023-04-08T05:12:19;8.70;99.90
1123;DHT22;548;48.778;9.252;2023-04-08T05:14:46;8.70;99.90
1123;DHT22;548;48.778;9.252;2023-04-08T05:17:13;8.80;99.90
1123;DHT22;548;48.778;9.252;2023-04-08T05:19:40;8.90;99.90
1123;DHT22;548;48.778;9.252;2023-04-08T05:22:08;9.00;99.90
1123;DHT22;548;48.778;9.252;2023-04-08T05:24:34;9.00;99.90
1123;DHT22;548;48.778;9.252;2023-04-08T05:27:01;8.90;99.90
1123;DHT22;548;48.778;9.252;2023-04-08T05:29:28;9.00;99.90
1123;DHT22;548;48.778;9.252;2023-04-08T05:31:55;9.00;99.90
1123;DHT22;548;48.778;9.252;2023-04-08T05:34:22;9.10;99.90
1123;DHT22;548;48.778;9.252;2023-04-08T05:36:49;9.20;99.90
1123;DHT22;548;48.778;9.252;2023-04-08T05:39:18;9.30;99.90
1123;DHT22;548;48.778;9.252;2023-04-08T05:41:45;9.20;99.90
1123;DHT22;548;48.778;9.252;2023-04-08T05:44:12;9.40;99.90
1123;DHT22;548;48.778;9.252;2023-04-08T05:46:39;9.50;99.90
1123;DHT22;548;48.778;9.252;2023-04-08T05:49:06;9.60;99.90
1123;DHT22;548;48.778;9.252;2023-04-08T05:51:32;9.50;99.90
1123;DHT22;548;48.778;9.252;2023-04-08T05:53:59;9.70;99.90
1123;DHT22;548;48.778;9.252;2023-04-08T05:56:27;9.60;99.90
1123;DHT22;548;48.778;9.252;2023-04-08T05:58:54;9.70;99.90
1123;DHT22;548;48.778;9.252;2023-04-08T06:01:20;9.70;99.90
1123;DHT22;548;48.778;9.252;2023-04-08T06:03:47;9.70;99.90
1123;DHT22;548;48.778;9.252;2023-04-08T06:06:14;9.60;99.90
1123;DHT22;548;48.778;9.252;2023-04-08T06:08:40;9.50;99.90
1123;DHT22;548;48.778;9.252;2023-04-08T06:11:07;9.50;99.90
1123;DHT22;548;48.778;9.252;2023-04-08T06:13:35;9.60;99.90
1123;DHT22;548;48.778;9.252;2023-04-08T06:16:09;9.60;99.90
1123;DHT22;548;48.778;9.252;2023-04-08T06:18:36;9.70;99.90
1123;DHT22;548;48.778;9.252;2023-04-08T06:21:03;9.70;99.90
1123;DHT22;548;48.778;9.252;2023-04-08T06:23:30;9.60;99.90
1123;DHT22;548;48.778;9.252;2023-04-08T06:25:56;9.70;99.90
1123;DHT22;548;48.778;9.252;2023-04-08T06:28:23;9.70;99.90
1123;DHT22;548;48.778;9.252;2023-04-08T06:30:52;9.60;99.90
1123;DHT22;548;48.778;9.252;2023-04-08T06:33:18;9.70;99.90
1123;DHT22;548;48.778;9.252;2023-04-08T06:35:45;9.80;99.90
1123;DHT22;548;48.778;9.252;2023-04-08T06:38:12;9.90;99.90
1123;DHT22;548;48.778;9.252;2023-04-08T06:40:39;10.00;99.90
1123;DHT22;548;48.778;9.252;2023-04-08T06:43:05;10.10;99.90
1123;DHT22;548;48.778;9.252;2023-04-08T06:45:32;10.30;99.90
1123;DHT22;548;48.778;9.252;2023-04-08T06:48:00;10.40;99.90
1123;DHT22;548;48.778;9.252;2023-04-08T06:50:27;10.40;99.90
1123;DHT22;548;48.778;9.252;2023-04-08T06:52:53;10.60;99.90
1123;DHT22;548;48.778;9.252;2023-04-08T06:55:20;10.70;99.90
1123;DHT22;548;48.778;9.252;2023-04-08T06:57:47;10.70;99.90
1123;DHT22;548;48.778;9.252;2023-04-08T07:00:14;10.50;99.90
1123;DHT22;548;48.778;9.252;2023-04-08T07:02:40;10.50;99.90
1123;DHT22;548;48.778;9.252;2023-04-08T07:05:09;10.20;99.90
1123;DHT22;548;48.778;9.252;2023-04-08T07:07:35;10.30;99.90
1123;DHT22;548;48.778;9.252;2023-04-08T07:10:03;10.30;99.90
1123;DHT22;548;48.778;9.252;2023-04-08T07:12:29;10.30;99.90
1123;DHT22;548;48.778;9.252;2023-04-08T07:14:56;10.20;99.90
1123;DHT22;548;48.778;9.252;2023-04-08T07:17:23;10.30;99.90
1123;DHT22;548;48.778;9.252;2023-04-08T07:19:50;10.60;99.90
1123;DHT22;548;48.778;9.252;2023-04-08T07:22:18;10.70;99.90
1123;DHT22;548;48.778;9.252;2023-04-08T07:24:44;10.70;99.90
1123;DHT22;548;48.778;9.252;2023-04-08T07:27:14;10.70;99.90
1123;DHT22;548;48.778;9.252;2023-04-08T07:29:41;10.70;99.90
1123;DHT22;548;48.778;9.252;2023-04-08T07:32:07;10.70;99.90
1123;DHT22;548;48.778;9.252;2023-04-08T07:34:34;10.70;99.90
1123;DHT22;548;48.778;9.252;2023-04-08T07:42:19;12.00;99.90
1123;DHT22;548;48.778;9.252;2023-04-08T07:44:46;12.10;99.90
1123;DHT22;548;48.778;9.252;2023-04-08T07:47:13;12.60;99.90
1123;DHT22;548;48.778;9.252;2023-04-08T07:49:39;13.10;99.90
1123;DHT22;548;48.778;9.252;2023-04-08T07:52:06;13.20;99.90
1123;DHT22;548;48.778;9.252;2023-04-08T07:54:33;13.00;99.90
1123;DHT22;548;48.778;9.252;2023-04-08T07:57:00;13.00;99.90
1123;DHT22;548;48.778;9.252;2023-04-08T07:59:28;13.00;99.90
1123;DHT22;548;48.778;9.252;2023-04-08T08:01:55;13.20;99.90
1123;DHT22;548;48.778;9.252;2023-04-08T08:04:21;13.30;99.90
1123;DHT22;548;48.778;9.252;2023-04-08T08:06:50;13.40;99.90
1123;DHT22;548;48.778;9.252;2023-04-08T08:09:16;13.30;99.90
1123;DHT22;548;48.778;9.252;2023-04-08T08:11:43;13.00;99.90
1123;DHT22;548;48.778;9.252;2023-04-08T08:14:10;12.70;99.90
1123;DHT22;548;48.778;9.252;2023-04-08T08:16:39;13.00;99.90
1123;DHT22;548;48.778;9.252;2023-04-08T08:19:07;13.30;99.90
1123;DHT22;548;48.778;9.252;2023-04-08T08:21:35;13.50;99.90
1123;DHT22;548;48.778;9.252;2023-04-08T08:24:02;13.70;99.90
1123;DHT22;548;48.778;9.252;2023-04-08T08:26:29;13.60;99.90
1123;DHT22;548;48.778;9.252;2023-04-08T08:28:55;13.30;99.90
1123;DHT22;548;48.778;9.252;2023-04-08T08:31:22;13.10;99.90
1123;DHT22;548;48.778;9.252;2023-04-08T08:33:50;13.20;99.90
1123;DHT22;548;48.778;9.252;2023-04-08T08:36:17;12.90;99.90
1123;DHT22;548;48.778;9.252;2023-04-08T08:38:44;12.80;99.90
1123;DHT22;548;48.778;9.252;2023-04-08T08:41:10;13.20;99.90
1123;DHT22;548;48.778;9.252;2023-04-08T08:43:37;13.30;99.90
1123;DHT22;548;48.778;9.252;2023-04-08T08:46:05;13.60;99.90
1123;DHT22;548;48.778;9.252;2023-04-08T08:48:33;14.40;99.90
1123;DHT22;548;48.778;9.252;2023-04-08T08:51:07;15.30;99.90
1123;DHT22;548;48.778;9.252;2023-04-08T08:53:34;15.90;99.90
1123;DHT22;548;48.778;9.252;2023-04-08T08:56:00;15.80;99.80
1123;DHT22;548;48.778;9.252;2023-04-08T08:58:27;15.90;99.70
1123;DHT22;548;48.778;9.252;2023-04-08T09:00:54;15.90;99.10
1123;DHT22;548;48.778;9.252;2023-04-08T09:03:22;16.00;98.90
1123;DHT22;548;48.778;9.252;2023-04-08T09:05:50;16.10;97.70
1123;DHT22;548;48.778;9.252;2023-04-08T09:08:27;16.10;97.60
1123;DHT22;548;48.778;9.252;2023-04-08T09:10:54;16.20;98.10
1123;DHT22;548;48.778;9.252;2023-04-08T09:13:21;16.40;97.00
1123;DHT22;548;48.778;9.252;2023-04-08T09:16:02;16.30;97.30
1123;DHT22;548;48.778;9.252;2023-04-08T09:18:30;16.20;97.80
1123;DHT22;548;48.778;9.252;2023-04-08T09:20:58;16.10;97.00
1123;DHT22;548;48.778;9.252;2023-04-08T09:23:38;15.80;95.40
1123;DHT22;548;48.778;9.252;2023-04-08T09:26:10;16.10;96.70
1123;DHT22;548;48.778;9.252;2023-04-08T09:28:37;16.50;96.10
1123;DHT22;548;48.778;9.252;2023-04-08T09:31:21;17.30;94.10
1123;DHT22;548;48.778;9.252;2023-04-08T09:33:48;17.50;92.30
1123;DHT22;548;48.778;9.252;2023-04-08T09:36:16;17.20;91.20
1123;DHT22;548;48.778;9.252;2023-04-08T09:38:44;17.00;90.40
1123;DHT22;548;48.778;9.252;2023-04-08T09:41:13;17.30;90.10
1123;DHT22;548;48.778;9.252;2023-04-08T09:43:42;17.30;88.80
1123;DHT22;548;48.778;9.252;2023-04-08T09:46:13;17.80;86.80
1123;DHT22;548;48.778;9.252;2023-04-08T09:48:47;17.80;87.80
1123;DHT22;548;48.778;9.252;2023-04-08T09:51:16;17.30;89.70
1123;DHT22;548;48.778;9.252;2023-04-08T09:53:47;18.10;88.60
1123;DHT22;548;48.778;9.252;2023-04-08T09:56:16;18.50;88.50
1123;DHT22;548;48.778;9.252;2023-04-08T09:58:50;19.20;87.40
1123;DHT22;548;48.778;9.252;2023-04-08T10:01:23;19.90;85.10
1123;DHT22;548;48.778;9.252;2023-04-08T10:03:53;20.20;81.60
1123;DHT22;548;48.778;9.252;2023-04-08T10:06:21;19.60;79.30
1123;DHT22;548;48.778;9.252;2023-04-08T10:08:54;19.00;78.60
1123;DHT22;548;48.778;9.252;2023-04-08T10:11:21;18.70;77.20
1123;DHT22;548;48.778;9.252;2023-04-08T10:13:48;18.70;76.60
1123;DHT22;548;48.778;9.252;2023-04-08T10:16:19;18.20;71.30
1123;DHT22;548;48.778;9.252;2023-04-08T10:18:47;17.70;71.30
1123;DHT22;548;48.778;9.252;2023-04-08T10:21:37;16.60;73.30
1123;DHT22;548;48.778;9.252;2023-04-08T10:24:09;16.00;76.30
1123;DHT22;548;48.778;9.252;2023-04-08T10:26:38;15.30;77.10
1123;DHT22;548;48.778;9.252;2023-04-08T10:29:29;15.10;77.70
1123;DHT22;548;48.778;9.252;2023-04-08T10:31:56;14.90;79.70
1123;DHT22;548;48.778;9.252;2023-04-08T10:34:23;14.90;80.90
1123;DHT22;548;48.778;9.252;2023-04-08T10:36:51;14.80;82.10
1123;DHT22;548;48.778;9.252;2023-04-08T10:39:21;14.40;84.20
1123;DHT22;548;48.778;9.252;2023-04-08T10:41:48;14.50;85.10
1123;DHT22;548;48.778;9.252;2023-04-08T10:44:15;14.50;85.90
1123;DHT22;548;48.778;9.252;2023-04-08T10:46:42;14.10;85.60
1123;DHT22;548;48.778;9.252;2023-04-08T10:49:09;13.90;86.70
1123;DHT22;548;48.778;9.252;2023-04-08T10:51:35;14.00;87.70
1123;DHT22;548;48.778;9.252;2023-04-08T10:54:06;14.20;87.60
1123;DHT22;548;48.778;9.252;2023-04-08T10:56:34;14.10;87.60
1123;DHT22;548;48.778;9.252;2023-04-08T10:59:01;14.00;88.30
1123;DHT22;548;48.778;9.252;2023-04-08T11:01:37;13.90;87.70
1123;DHT22;548;48.778;9.252;2023-04-08T11:04:10;14.00;87.60
1123;DHT22;548;48.778;9.252;2023-04-08T11:06:37;14.20;87.20
1123;DHT22;548;48.778;9.252;2023-04-08T11:09:04;14.30;87.10
1123;DHT22;548;48.778;9.252;2023-04-08T11:11:31;14.70;85.70
1123;DHT22;548;48.778;9.252;2023-04-08T11:13:59;14.80;83.30
1123;DHT22;548;48.778;9.252;2023-04-08T11:16:26;14.90;81.90
1123;DHT22;548;48.778;9.252;2023-04-08T11:18:54;15.00;81.30
1123;DHT22;548;48.778;9.252;2023-04-08T11:21:23;14.70;78.30
1123;DHT22;548;48.778;9.252;2023-04-08T11:23:53;14.50;80.80
1123;DHT22;548;48.778;9.252;2023-04-08T11:26:21;14.50;80.50
1123;DHT22;548;48.778;9.252;2023-04-08T11:28:49;14.60;79.60
1123;DHT22;548;48.778;9.252;2023-04-08T11:31:18;14.80;79.30
1123;DHT22;548;48.778;9.252;2023-04-08T11:33:46;14.50;79.90
1123;DHT22;548;48.778;9.252;2023-04-08T11:36:15;14.70;81.20
1123;DHT22;548;48.778;9.252;2023-04-08T11:38:43;14.90;80.00
1123;DHT22;548;48.778;9.252;2023-04-08T11:41:12;14.70;80.40
1123;DHT22;548;48.778;9.252;2023-04-08T11:43:44;14.30;80.00
1123;DHT22;548;48.778;9.252;2023-04-08T11:46:16;14.20;82.40
1123;DHT22;548;48.778;9.252;2023-04-08T11:49:01;14.30;84.70
1123;DHT22;548;48.778;9.252;2023-04-08T11:51:28;14.30;86.80
1123;DHT22;548;48.778;9.252;2023-04-08T11:53:55;14.10;88.80
1123;DHT22;548;48.778;9.252;2023-04-08T11:56:23;14.10;88.00
1123;DHT22;548;48.778;9.252;2023-04-08T11:58:50;13.80;89.10
1123;DHT22;548;48.778;9.252;2023-04-08T12:01:17;13.80;87.20
1123;DHT22;548;48.778;9.252;2023-04-08T12:04:00;13.80;86.60
1123;DHT22;548;48.778;9.252;2023-04-08T12:06:27;13.70;86.90
1123;DHT22;548;48.778;9.252;2023-04-08T12:08:56;13.70;87.50
1123;DHT22;548;48.778;9.252;2023-04-08T12:11:23;13.90;86.90
1123;DHT22;548;48.778;9.252;2023-04-08T12:13:50;13.90;87.00
1123;DHT22;548;48.778;9.252;2023-04-08T12:16:17;13.90;87.20
1123;DHT22;548;48.778;9.252;2023-04-08T12:18:45;14.00;88.00
1123;DHT22;548;48.778;9.252;2023-04-08T12:21:13;13.90;87.40
1123;DHT22;548;48.778;9.252;2023-04-08T12:23:40;14.00;88.20
1123;DHT22;548;48.778;9.252;2023-04-08T12:26:07;13.90;87.40
1123;DHT22;548;48.778;9.252;2023-04-08T12:28:33;14.10;87.30
1123;DHT22;548;48.778;9.252;2023-04-08T12:31:01;14.40;86.20
1123;DHT22;548;48.778;9.252;2023-04-08T12:33:27;14.30;85.50
1123;DHT22;548;48.778;9.252;2023-04-08T12:35:54;14.10;86.10
1123;DHT22;548;48.778;9.252;2023-04-08T12:38:23;13.90;85.70
1123;DHT22;548;48.778;9.252;2023-04-08T12:40:50;14.00;86.30
1123;DHT22;548;48.778;9.252;2023-04-08T12:43:17;13.90;86.10
1123;DHT22;548;48.778;9.252;2023-04-08T12:45:44;14.20;86.60
1123;DHT22;548;48.778;9.252;2023-04-08T12:48:11;14.10;86.00
1123;DHT22;548;48.778;9.252;2023-04-08T12:50:37;14.20;86.50
1123;DHT22;548;48.778;9.252;2023-04-08T12:53:04;14.40;86.80
1123;DHT22;548;48.778;9.252;2023-04-08T12:55:32;14.40;86.10
1123;DHT22;548;48.778;9.252;2023-04-08T12:57:59;14.30;86.40
1123;DHT22;548;48.778;9.252;2023-04-08T13:00:26;14.30;86.40
1123;DHT22;548;48.778;9.252;2023-04-08T13:02:52;14.30;87.10
1123;DHT22;548;48.778;9.252;2023-04-08T13:05:19;14.40;87.40
1123;DHT22;548;48.778;9.252;2023-04-08T13:07:45;14.50;87.00
1123;DHT22;548;48.778;9.252;2023-04-08T13:10:12;14.80;86.40
1123;DHT22;548;48.778;9.252;2023-04-08T13:12:40;14.70;86.20
1123;DHT22;548;48.778;9.252;2023-04-08T13:15:08;14.80;86.10
1123;DHT22;548;48.778;9.252;2023-04-08T13:17:36;14.50;87.30
1123;DHT22;548;48.778;9.252;2023-04-08T13:20:03;14.30;87.70
1123;DHT22;548;48.778;9.252;2023-04-08T13:22:30;14.30;88.30
1123;DHT22;548;48.778;9.252;2023-04-08T13:24:58;14.30;88.90
1123;DHT22;548;48.778;9.252;2023-04-08T13:27:24;14.20;89.70
1123;DHT22;548;48.778;9.252;2023-04-08T13:29:52;14.20;90.20
1123;DHT22;548;48.778;9.252;2023-04-08T13:32:19;14.40;89.40
1123;DHT22;548;48.778;9.252;2023-04-08T13:34:45;14.40;89.50
1123;DHT22;548;48.778;9.252;2023-04-08T13:37:12;14.40;90.00
1123;DHT22;548;48.778;9.252;2023-04-08T13:39:39;14.30;89.90
1123;DHT22;548;48.778;9.252;2023-04-08T13:42:06;14.10;90.10
1123;DHT22;548;48.778;9.252;2023-04-08T13:44:32;14.20;90.30
1123;DHT22;548;48.778;9.252;2023-04-08T13:47:00;13.90;90.40
1123;DHT22;548;48.778;9.252;2023-04-08T13:49:27;13.70;90.90
1123;DHT22;548;48.778;9.252;2023-04-08T13:51:54;13.50;91.40
1123;DHT22;548;48.778;9.252;2023-04-08T13:54:20;13.40;91.70
1123;DHT22;548;48.778;9.252;2023-04-08T13:56:47;13.60;92.30
1123;DHT22;548;48.778;9.252;2023-04-08T13:59:14;13.60;92.10
1123;DHT22;548;48.778;9.252;2023-04-08T14:01:40;13.50;92.40
1123;DHT22;548;48.778;9.252;2023-04-08T14:04:09;13.60;92.50
1123;DHT22;548;48.778;9.252;2023-04-08T14:06:36;13.80;92.40
1123;DHT22;548;48.778;9.252;2023-04-08T14:09:03;14.10;92.70
1123;DHT22;548;48.778;9.252;2023-04-08T14:11:30;14.40;91.40
1123;DHT22;548;48.778;9.252;2023-04-08T14:13:56;14.50;91.30
1123;DHT22;548;48.778;9.252;2023-04-08T14:16:23;14.60;91.00
1123;DHT22;548;48.778;9.252;2023-04-08T14:18:50;14.30;91.20
1123;DHT22;548;48.778;9.252;2023-04-08T14:21:18;14.10;91.60
1123;DHT22;548;48.778;9.252;2023-04-08T14:23:45;13.80;92.10
1123;DHT22;548;48.778;9.252;2023-04-08T14:26:12;13.80;92.60
1123;DHT22;548;48.778;9.252;2023-04-08T14:28:39;13.70;92.70
1123;DHT22;548;48.778;9.252;2023-04-08T14:31:06;13.80;92.60
1123;DHT22;548;48.778;9.252;2023-04-08T14:33:32;13.70;92.90
1123;DHT22;548;48.778;9.252;2023-04-08T14:50:16;14.30;92.10
1123;DHT22;548;48.778;9.252;2023-04-08T14:52:46;15.20;92.90
1123;DHT22;548;48.778;9.252;2023-04-08T14:55:21;13.90;92.70
1123;DHT22;548;48.778;9.252;2023-04-08T15:01:56;14.30;91.20
1123;DHT22;548;48.778;9.252;2023-04-08T15:04:55;14.00;91.00
1123;DHT22;548;48.778;9.252;2023-04-08T15:07:31;13.70;91.50
1123;DHT22;548;48.778;9.252;2023-04-08T15:10:48;13.80;92.50
1123;DHT22;548;48.778;9.252;2023-04-08T15:13:17;14.00;92.20
1123;DHT22;548;48.778;9.252;2023-04-08T15:15:44;13.70;91.90
1123;DHT22;548;48.778;9.252;2023-04-08T15:21:30;14.00;91.10
1123;DHT22;548;48.778;9.252;2023-04-08T15:24:00;14.00;91.70
1123;DHT22;548;48.778;9.252;2023-04-08T15:26:30;13.80;92.20
1123;DHT22;548;48.778;9.252;2023-04-08T15:28:57;14.30;92.10
1123;DHT22;548;48.778;9.252;2023-04-08T15:31:24;14.50;92.90
1123;DHT22;548;48.778;9.252;2023-04-08T15:33:51;13.90;93.20
1123;DHT22;548;48.778;9.252;2023-04-08T15:36:18;13.30;94.10
1123;DHT22;548;48.778;9.252;2023-04-08T15:38:46;13.30;94.50
1123;DHT22;548;48.778;9.252;2023-04-08T15:41:18;13.10;94.40
1123;DHT22;548;48.778;9.252;2023-04-08T15:43:46;12.80;94.40
1123;DHT22;548;48.778;9.252;2023-04-08T15:46:16;12.70;95.10
1123;DHT22;548;48.778;9.252;2023-04-08T15:48:43;12.80;95.50
1123;DHT22;548;48.778;9.252;2023-04-08T15:51:10;12.70;95.70
1123;DHT22;548;48.778;9.252;2023-04-08T15:53:37;12.70;95.90
1123;DHT22;548;48.778;9.252;2023-04-08T15:56:05;12.70;96.20
1123;DHT22;548;48.778;9.252;2023-04-08T15:58:33;12.60;96.60
1123;DHT22;548;48.778;9.252;2023-04-08T16:00:59;12.80;96.20
1123;DHT22;548;48.778;9.252;2023-04-08T16:03:26;12.90;95.80
1123;DHT22;548;48.778;9.252;2023-04-08T16:05:53;12.80;96.00
1123;DHT22;548;48.778;9.252;2023-04-08T16:08:19;12.80;95.50
1123;DHT22;548;48.778;9.252;2023-04-08T16:10:47;12.80;95.50
1123;DHT22;548;48.778;9.252;2023-04-08T16:13:14;12.60;95.70
1123;DHT22;548;48.778;9.252;2023-04-08T16:15:42;12.70;95.70
1123;DHT22;548;48.778;9.252;2023-04-08T16:18:09;12.60;95.70
1123;DHT22;548;48.778;9.252;2023-04-08T16:20:36;12.40;96.40
1123;DHT22;548;48.778;9.252;2023-04-08T16:23:03;12.30;96.70
1123;DHT22;548;48.778;9.252;2023-04-08T16:25:30;12.30;97.10
1123;DHT22;548;48.778;9.252;2023-04-08T16:27:56;12.20;97.50
1123;DHT22;548;48.778;9.252;2023-04-08T16:30:23;12.20;98.20
1123;DHT22;548;48.778;9.252;2023-04-08T16:32:52;12.20;98.50
1123;DHT22;548;48.778;9.252;2023-04-08T16:35:19;12.20;98.60
1123;DHT22;548;48.778;9.252;2023-04-08T16:37:46;12.10;99.20
1123;DHT22;548;48.778;9.252;2023-04-08T16:40:13;12.00;99.90
1123;DHT22;548;48.778;9.252;2023-04-08T16:42:40;11.90;99.90
1123;DHT22;548;48.778;9.252;2023-04-08T16:45:08;11.80;99.90
1123;DHT22;548;48.778;9.252;2023-04-08T16:47:34;11.80;99.90
1123;DHT22;548;48.778;9.252;2023-04-08T16:50:03;11.60;99.90
1123;DHT22;548;48.778;9.252;2023-04-08T16:52:30;11.60;99.90
1123;DHT22;548;48.778;9.252;2023-04-08T16:54:57;11.60;99.90
1123;DHT22;548;48.778;9.252;2023-04-08T16:57:24;11.60;99.90